sensor_id;sensor_type;location;lat;lon;timestamp;P1;durP1;ratioP1;P2;durP2;ratioP2
6614;SDS011;3343;42.896;23.912;2023-02-19T00:00:12;3.93;;;2.63;;
6614;SDS011;3343;42.896;23.912;2023-02-19T00:02:40;4.00;;;2.70;;
6614;SDS011;3343;42.896;23.912;2023-02-19T00:05:09;6.40;;;2.93;;
6614;SDS011;3343;42.896;23.912;2023-02-19T00:07:36;6.37;;;2.83;;
6614;SDS011;3343;42.896;23.912;2023-02-19T00:10:03;4.27;;;2.40;;
6614;SDS011;3343;42.896;23.912;2023-02-19T00:12:30;4.70;;;2.50;;
6614;SDS011;3343;42.896;23.912;2023-02-19T00:14:58;9.00;;;2.63;;
6614;SDS011;3343;42.896;23.912;2023-02-19T00:17:26;6.03;;;2.83;;
6614;SDS011;3343;42.896;23.912;2023-02-19T00:19:53;5.67;;;2.70;;
6614;SDS011;3343;42.896;23.912;2023-02-19T00:22:20;8.03;;;3.60;;
6614;SDS011;3343;42.896;23.912;2023-02-19T00:24:47;7.87;;;3.67;;
6614;SDS011;3343;42.896;23.912;2023-02-19T00:27:14;6.10;;;3.50;;
6614;SDS011;3343;42.896;23.912;2023-02-19T00:29:41;5.57;;;2.30;;
6614;SDS011;3343;42.896;23.912;2023-02-19T00:32:09;5.70;;;2.97;;
6614;SDS011;3343;42.896;23.912;2023-02-19T00:34:36;5.20;;;2.40;;
6614;SDS011;3343;42.896;23.912;2023-02-19T00:37:03;5.73;;;2.47;;
6614;SDS011;3343;42.896;23.912;2023-02-19T00:39:30;7.90;;;3.70;;
6614;SDS011;3343;42.896;23.912;2023-02-19T00:41:57;5.27;;;3.17;;
6614;SDS011;3343;42.896;23.912;2023-02-19T00:44:25;6.77;;;2.40;;
6614;SDS011;3343;42.896;23.912;2023-02-19T00:46:52;3.97;;;2.80;;
6614;SDS011;3343;42.896;23.912;2023-02-19T00:49:21;9.10;;;3.50;;
6614;SDS011;3343;42.896;23.912;2023-02-19T00:51:48;6.20;;;2.50;;
6614;SDS011;3343;42.896;23.912;2023-02-19T00:54:16;3.37;;;2.37;;
6614;SDS011;3343;42.896;23.912;2023-02-19T00:56:43;3.47;;;2.10;;
6614;SDS011;3343;42.896;23.912;2023-02-19T00:59:10;6.83;;;3.87;;
6614;SDS011;3343;42.896;23.912;2023-02-19T01:01:37;4.90;;;2.80;;
6614;SDS011;3343;42.896;23.912;2023-02-19T01:04:04;11.23;;;4.07;;
6614;SDS011;3343;42.896;23.912;2023-02-19T01:06:33;5.40;;;2.90;;
6614;SDS011;3343;42.896;23.912;2023-02-19T01:09:00;4.20;;;2.60;;
6614;SDS011;3343;42.896;23.912;2023-02-19T01:11:27;4.07;;;2.40;;
6614;SDS011;3343;42.896;23.912;2023-02-19T01:13:55;2.93;;;1.93;;
6614;SDS011;3343;42.896;23.912;2023-02-19T01:16:23;5.87;;;2.70;;
6614;SDS011;3343;42.896;23.912;2023-02-19T01:18:51;5.40;;;2.63;;
6614;SDS011;3343;42.896;23.912;2023-02-19T01:21:19;4.07;;;2.40;;
6614;SDS011;3343;42.896;23.912;2023-02-19T01:23:49;3.07;;;2.00;;
6614;SDS011;3343;42.896;23.912;2023-02-19T01:26:17;3.17;;;2.10;;
6614;SDS011;3343;42.896;23.912;2023-02-19T01:28:45;3.40;;;2.17;;
6614;SDS011;3343;42.896;23.912;2023-02-19T01:31:14;5.07;;;3.07;;
6614;SDS011;3343;42.896;23.912;2023-02-19T01:33:43;10.90;;;5.03;;
6614;SDS011;3343;42.896;23.912;2023-02-19T01:36:11;9.13;;;4.67;;
6614;SDS011;3343;42.896;23.912;2023-02-19T01:38:39;7.27;;;3.97;;
6614;SDS011;3343;42.896;23.912;2023-02-19T01:41:09;5.07;;;2.60;;
6614;SDS011;3343;42.896;23.912;2023-02-19T01:43:52;9.97;;;3.10;;
6614;SDS011;3343;42.896;23.912;2023-02-19T01:46:23;5.67;;;2.53;;
6614;SDS011;3343;42.896;23.912;2023-02-19T01:48:51;6.80;;;3.47;;
6614;SDS011;3343;42.896;23.912;2023-02-19T01:51:20;7.57;;;4.33;;
6614;SDS011;3343;42.896;23.912;2023-02-19T01:53:49;5.87;;;3.50;;
6614;SDS011;3343;42.896;23.912;2023-02-19T01:56:21;8.43;;;3.67;;
6614;SDS011;3343;42.896;23.912;2023-02-19T01:58:50;10.47;;;4.23;;
6614;SDS011;3343;42.896;23.912;2023-02-19T02:01:17;8.17;;;4.10;;
6614;SDS011;3343;42.896;23.912;2023-02-19T02:03:44;8.23;;;4.27;;
6614;SDS011;3343;42.896;23.912;2023-02-19T02:06:14;7.93;;;3.57;;
6614;SDS011;3343;42.896;23.912;2023-02-19T02:08:48;6.17;;;3.70;;
6614;SDS011;3343;42.896;23.912;2023-02-19T02:11:41;6.53;;;3.63;;
6614;SDS011;3343;42.896;23.912;2023-02-19T02:14:11;5.90;;;3.23;;
6614;SDS011;3343;42.896;23.912;2023-02-19T02:16:41;7.60;;;3.13;;
6614;SDS011;3343;42.896;23.912;2023-02-19T02:19:16;3.43;;;2.67;;
6614;SDS011;3343;42.896;23.912;2023-02-19T02:22:05;7.87;;;3.23;;
6614;SDS011;3343;42.896;23.912;2023-02-19T02:27:46;4.17;;;2.77;;
6614;SDS011;3343;42.896;23.912;2023-02-19T02:30:26;8.43;;;3.50;;
6614;SDS011;3343;42.896;23.912;2023-02-19T02:33:00;3.73;;;2.53;;
6614;SDS011;3343;42.896;23.912;2023-02-19T02:35:38;3.03;;;1.93;;
6614;SDS011;3343;42.896;23.912;2023-02-19T02:38:09;4.70;;;2.30;;
6614;SDS011;3343;42.896;23.912;2023-02-19T02:40:39;4.13;;;2.37;;
6614;SDS011;3343;42.896;23.912;2023-02-19T02:43:09;5.33;;;2.53;;
6614;SDS011;3343;42.896;23.912;2023-02-19T02:45:38;4.53;;;2.60;;
6614;SDS011;3343;42.896;23.912;2023-02-19T02:48:08;4.33;;;2.20;;
6614;SDS011;3343;42.896;23.912;2023-02-19T02:50:45;4.00;;;2.50;;
6614;SDS011;3343;42.896;23.912;2023-02-19T02:53:17;5.00;;;2.73;;
6614;SDS011;3343;42.896;23.912;2023-02-19T02:56:05;2.40;;;1.87;;
6614;SDS011;3343;42.896;23.912;2023-02-19T02:58:34;2.73;;;1.83;;
6614;SDS011;3343;42.896;23.912;2023-02-19T03:01:04;2.83;;;2.30;;
6614;SDS011;3343;42.896;23.912;2023-02-19T03:03:52;5.80;;;2.17;;
6614;SDS011;3343;42.896;23.912;2023-02-19T03:06:23;9.20;;;3.50;;
6614;SDS011;3343;42.896;23.912;2023-02-19T03:08:53;5.17;;;2.80;;
6614;SDS011;3343;42.896;23.912;2023-02-19T03:11:24;4.33;;;2.43;;
6614;SDS011;3343;42.896;23.912;2023-02-19T03:14:09;6.00;;;2.40;;
6614;SDS011;3343;42.896;23.912;2023-02-19T03:17:01;3.80;;;2.07;;
6614;SDS011;3343;42.896;23.912;2023-02-19T03:19:52;5.10;;;2.90;;
6614;SDS011;3343;42.896;23.912;2023-02-19T03:22:22;7.43;;;4.03;;
6614;SDS011;3343;42.896;23.912;2023-02-19T03:24:53;8.97;;;4.47;;
6614;SDS011;3343;42.896;23.912;2023-02-19T03:27:42;4.87;;;2.53;;
6614;SDS011;3343;42.896;23.912;2023-02-19T03:30:13;5.63;;;2.57;;
6614;SDS011;3343;42.896;23.912;2023-02-19T03:32:45;3.60;;;2.40;;
6614;SDS011;3343;42.896;23.912;2023-02-19T03:35:15;4.97;;;2.50;;
6614;SDS011;3343;42.896;23.912;2023-02-19T03:37:48;3.73;;;2.50;;
6614;SDS011;3343;42.896;23.912;2023-02-19T03:40:19;2.83;;;2.20;;
6614;SDS011;3343;42.896;23.912;2023-02-19T03:42:52;2.53;;;2.03;;
6614;SDS011;3343;42.896;23.912;2023-02-19T03:45:33;3.40;;;2.47;;
6614;SDS011;3343;42.896;23.912;2023-02-19T03:48:16;4.93;;;2.30;;
6614;SDS011;3343;42.896;23.912;2023-02-19T03:50:49;4.33;;;2.13;;
6614;SDS011;3343;42.896;23.912;2023-02-19T03:53:22;4.70;;;2.10;;
6614;SDS011;3343;42.896;23.912;2023-02-19T03:55:59;7.83;;;3.23;;
6614;SDS011;3343;42.896;23.912;2023-02-19T03:58:33;5.70;;;2.87;;
6614;SDS011;3343;42.896;23.912;2023-02-19T04:01:07;15.63;;;7.20;;
6614;SDS011;3343;42.896;23.912;2023-02-19T04:03:39;22.43;;;9.53;;
6614;SDS011;3343;42.896;23.912;2023-02-19T04:06:13;15.70;;;7.53;;
6614;SDS011;3343;42.896;23.912;2023-02-19T04:08:44;8.67;;;4.50;;
6614;SDS011;3343;42.896;23.912;2023-02-19T04:11:15;9.63;;;4.73;;
6614;SDS011;3343;42.896;23.912;2023-02-19T04:13:45;10.00;;;4.50;;
6614;SDS011;3343;42.896;23.912;2023-02-19T04:16:18;8.40;;;3.87;;
6614;SDS011;3343;42.896;23.912;2023-02-19T04:18:50;12.27;;;4.77;;
6614;SDS011;3343;42.896;23.912;2023-02-19T04:21:20;9.60;;;3.90;;
6614;SDS011;3343;42.896;23.912;2023-02-19T04:23:48;6.83;;;3.87;;
6614;SDS011;3343;42.896;23.912;2023-02-19T04:26:15;8.17;;;3.53;;
6614;SDS011;3343;42.896;23.912;2023-02-19T04:28:45;5.70;;;3.00;;
6614;SDS011;3343;42.896;23.912;2023-02-19T04:31:12;3.73;;;2.20;;
6614;SDS011;3343;42.896;23.912;2023-02-19T04:33:39;4.80;;;2.43;;
6614;SDS011;3343;42.896;23.912;2023-02-19T04:36:08;9.83;;;6.03;;
6614;SDS011;3343;42.896;23.912;2023-02-19T04:38:36;17.00;;;7.90;;
6614;SDS011;3343;42.896;23.912;2023-02-19T04:41:03;17.77;;;8.70;;
6614;SDS011;3343;42.896;23.912;2023-02-19T04:43:30;17.67;;;7.47;;
6614;SDS011;3343;42.896;23.912;2023-02-19T04:46:00;14.47;;;6.60;;
6614;SDS011;3343;42.896;23.912;2023-02-19T04:48:27;10.63;;;5.60;;
6614;SDS011;3343;42.896;23.912;2023-02-19T04:50:55;11.37;;;6.60;;
6614;SDS011;3343;42.896;23.912;2023-02-19T04:53:23;7.97;;;4.97;;
6614;SDS011;3343;42.896;23.912;2023-02-19T04:55:50;9.13;;;5.57;;
6614;SDS011;3343;42.896;23.912;2023-02-19T04:58:18;11.23;;;5.57;;
6614;SDS011;3343;42.896;23.912;2023-02-19T05:00:50;8.13;;;4.97;;
6614;SDS011;3343;42.896;23.912;2023-02-19T05:03:17;9.23;;;6.23;;
6614;SDS011;3343;42.896;23.912;2023-02-19T05:05:44;8.77;;;5.20;;
6614;SDS011;3343;42.896;23.912;2023-02-19T05:08:11;9.13;;;4.23;;
6614;SDS011;3343;42.896;23.912;2023-02-19T05:10:39;7.27;;;3.87;;
6614;SDS011;3343;42.896;23.912;2023-02-19T05:13:06;7.13;;;3.63;;
6614;SDS011;3343;42.896;23.912;2023-02-19T05:15:33;10.77;;;4.63;;
6614;SDS011;3343;42.896;23.912;2023-02-19T05:18:00;13.37;;;6.83;;
6614;SDS011;3343;42.896;23.912;2023-02-19T05:20:27;14.60;;;6.83;;
6614;SDS011;3343;42.896;23.912;2023-02-19T05:22:54;13.43;;;7.77;;
6614;SDS011;3343;42.896;23.912;2023-02-19T05:25:21;17.93;;;8.47;;
6614;SDS011;3343;42.896;23.912;2023-02-19T05:27:49;12.97;;;7.27;;
6614;SDS011;3343;42.896;23.912;2023-02-19T05:30:36;9.90;;;5.60;;
6614;SDS011;3343;42.896;23.912;2023-02-19T05:33:03;19.20;;;7.63;;
6614;SDS011;3343;42.896;23.912;2023-02-19T05:35:30;16.80;;;8.03;;
6614;SDS011;3343;42.896;23.912;2023-02-19T05:37:57;15.13;;;7.20;;
6614;SDS011;3343;42.896;23.912;2023-02-19T05:40:23;19.23;;;7.77;;
6614;SDS011;3343;42.896;23.912;2023-02-19T05:42:52;18.10;;;7.30;;
6614;SDS011;3343;42.896;23.912;2023-02-19T05:45:18;16.03;;;6.90;;
6614;SDS011;3343;42.896;23.912;2023-02-19T05:47:45;10.57;;;6.13;;
6614;SDS011;3343;42.896;23.912;2023-02-19T05:50:12;11.33;;;6.03;;
6614;SDS011;3343;42.896;23.912;2023-02-19T05:52:39;7.43;;;4.40;;
6614;SDS011;3343;42.896;23.912;2023-02-19T05:55:06;11.37;;;5.70;;
6614;SDS011;3343;42.896;23.912;2023-02-19T05:57:33;17.40;;;9.83;;
6614;SDS011;3343;42.896;23.912;2023-02-19T06:00:07;15.73;;;8.40;;
6614;SDS011;3343;42.896;23.912;2023-02-19T06:02:37;16.50;;;7.77;;
6614;SDS011;3343;42.896;23.912;2023-02-19T06:05:04;15.10;;;8.83;;
6614;SDS011;3343;42.896;23.912;2023-02-19T06:07:32;18.63;;;8.37;;
6614;SDS011;3343;42.896;23.912;2023-02-19T06:09:59;17.80;;;8.33;;
6614;SDS011;3343;42.896;23.912;2023-02-19T06:12:26;14.73;;;8.57;;
6614;SDS011;3343;42.896;23.912;2023-02-19T06:14:53;23.67;;;12.27;;
6614;SDS011;3343;42.896;23.912;2023-02-19T06:17:21;24.37;;;12.47;;
6614;SDS011;3343;42.896;23.912;2023-02-19T06:19:48;24.93;;;10.63;;
6614;SDS011;3343;42.896;23.912;2023-02-19T06:22:15;17.43;;;8.70;;
6614;SDS011;3343;42.896;23.912;2023-02-19T06:24:42;17.93;;;9.07;;
6614;SDS011;3343;42.896;23.912;2023-02-19T06:27:09;14.03;;;7.80;;
6614;SDS011;3343;42.896;23.912;2023-02-19T06:29:36;36.33;;;16.93;;
6614;SDS011;3343;42.896;23.912;2023-02-19T06:32:03;21.10;;;10.80;;
6614;SDS011;3343;42.896;23.912;2023-02-19T06:34:32;14.40;;;7.77;;
6614;SDS011;3343;42.896;23.912;2023-02-19T06:37:00;12.40;;;6.90;;
6614;SDS011;3343;42.896;23.912;2023-02-19T06:39:27;20.93;;;8.63;;
6614;SDS011;3343;42.896;23.912;2023-02-19T06:41:54;21.43;;;10.97;;
6614;SDS011;3343;42.896;23.912;2023-02-19T06:44:20;18.17;;;11.13;;
6614;SDS011;3343;42.896;23.912;2023-02-19T06:46:47;26.33;;;14.80;;
6614;SDS011;3343;42.896;23.912;2023-02-19T06:49:14;19.37;;;9.93;;
6614;SDS011;3343;42.896;23.912;2023-02-19T06:51:43;26.17;;;12.03;;
6614;SDS011;3343;42.896;23.912;2023-02-19T06:54:09;19.87;;;9.50;;
6614;SDS011;3343;42.896;23.912;2023-02-19T06:56:36;17.67;;;9.90;;
6614;SDS011;3343;42.896;23.912;2023-02-19T06:59:05;17.50;;;9.70;;
6614;SDS011;3343;42.896;23.912;2023-02-19T07:01:34;18.10;;;10.63;;
6614;SDS011;3343;42.896;23.912;2023-02-19T07:04:02;22.60;;;11.43;;
6614;SDS011;3343;42.896;23.912;2023-02-19T07:06:29;20.93;;;11.67;;
6614;SDS011;3343;42.896;23.912;2023-02-19T07:08:58;46.97;;;22.00;;
6614;SDS011;3343;42.896;23.912;2023-02-19T07:11:27;35.27;;;19.63;;
6614;SDS011;3343;42.896;23.912;2023-02-19T07:13:56;44.83;;;18.13;;
6614;SDS011;3343;42.896;23.912;2023-02-19T07:16:23;42.30;;;19.20;;
6614;SDS011;3343;42.896;23.912;2023-02-19T07:18:51;33.63;;;18.77;;
6614;SDS011;3343;42.896;23.912;2023-02-19T07:21:18;36.80;;;20.83;;
6614;SDS011;3343;42.896;23.912;2023-02-19T07:23:45;40.63;;;19.90;;
6614;SDS011;3343;42.896;23.912;2023-02-19T07:26:13;34.23;;;17.73;;
6614;SDS011;3343;42.896;23.912;2023-02-19T07:28:42;41.07;;;20.23;;
6614;SDS011;3343;42.896;23.912;2023-02-19T07:31:09;37.47;;;19.53;;
6614;SDS011;3343;42.896;23.912;2023-02-19T07:33:37;34.17;;;19.23;;
6614;SDS011;3343;42.896;23.912;2023-02-19T07:36:05;37.63;;;19.33;;
6614;SDS011;3343;42.896;23.912;2023-02-19T07:38:33;41.27;;;22.23;;
6614;SDS011;3343;42.896;23.912;2023-02-19T07:41:00;42.57;;;24.93;;
6614;SDS011;3343;42.896;23.912;2023-02-19T07:43:30;39.80;;;23.10;;
6614;SDS011;3343;42.896;23.912;2023-02-19T07:46:01;38.30;;;20.27;;
6614;SDS011;3343;42.896;23.912;2023-02-19T07:48:28;38.50;;;19.90;;
6614;SDS011;3343;42.896;23.912;2023-02-19T07:50:55;26.03;;;14.67;;
6614;SDS011;3343;42.896;23.912;2023-02-19T07:53:24;15.57;;;9.17;;
6614;SDS011;3343;42.896;23.912;2023-02-19T07:55:52;9.67;;;5.67;;
6614;SDS011;3343;42.896;23.912;2023-02-19T07:58:19;7.63;;;4.70;;
6614;SDS011;3343;42.896;23.912;2023-02-19T08:00:47;7.27;;;4.33;;
6614;SDS011;3343;42.896;23.912;2023-02-19T08:03:14;9.23;;;4.23;;
6614;SDS011;3343;42.896;23.912;2023-02-19T08:05:41;4.70;;;3.10;;
6614;SDS011;3343;42.896;23.912;2023-02-19T08:08:09;4.83;;;3.50;;
6614;SDS011;3343;42.896;23.912;2023-02-19T08:10:37;5.03;;;3.60;;
6614;SDS011;3343;42.896;23.912;2023-02-19T08:13:21;6.32;;;3.38;;
6614;SDS011;3343;42.896;23.912;2023-02-19T08:15:51;4.57;;;3.40;;
6614;SDS011;3343;42.896;23.912;2023-02-19T08:18:19;7.18;;;4.00;;
6614;SDS011;3343;42.896;23.912;2023-02-19T08:20:48;8.82;;;3.97;;
6614;SDS011;3343;42.896;23.912;2023-02-19T08:23:15;8.80;;;5.00;;
6614;SDS011;3343;42.896;23.912;2023-02-19T08:25:45;11.00;;;5.68;;
6614;SDS011;3343;42.896;23.912;2023-02-19T08:28:12;8.57;;;4.85;;
6614;SDS011;3343;42.896;23.912;2023-02-19T08:30:40;7.17;;;4.10;;
6614;SDS011;3343;42.896;23.912;2023-02-19T08:33:10;7.27;;;4.50;;
6614;SDS011;3343;42.896;23.912;2023-02-19T08:35:38;8.30;;;4.50;;
6614;SDS011;3343;42.896;23.912;2023-02-19T08:38:06;6.90;;;4.40;;
6614;SDS011;3343;42.896;23.912;2023-02-19T08:40:33;7.17;;;4.20;;
6614;SDS011;3343;42.896;23.912;2023-02-19T08:43:02;6.80;;;3.88;;
6614;SDS011;3343;42.896;23.912;2023-02-19T08:45:30;7.15;;;4.60;;
6614;SDS011;3343;42.896;23.912;2023-02-19T08:47:57;9.70;;;4.60;;
6614;SDS011;3343;42.896;23.912;2023-02-19T08:50:25;6.43;;;3.83;;
6614;SDS011;3343;42.896;23.912;2023-02-19T08:52:52;4.18;;;3.00;;
6614;SDS011;3343;42.896;23.912;2023-02-19T08:55:19;3.45;;;2.60;;
6614;SDS011;3343;42.896;23.912;2023-02-19T08:57:46;4.38;;;3.20;;
6614;SDS011;3343;42.896;23.912;2023-02-19T09:00:13;4.78;;;3.40;;
6614;SDS011;3343;42.896;23.912;2023-02-19T09:02:40;4.70;;;2.70;;
6614;SDS011;3343;42.896;23.912;2023-02-19T09:05:08;3.38;;;2.30;;
6614;SDS011;3343;42.896;23.912;2023-02-19T09:07:37;2.88;;;2.30;;
6614;SDS011;3343;42.896;23.912;2023-02-19T09:10:05;4.65;;;2.22;;
6614;SDS011;3343;42.896;23.912;2023-02-19T09:12:33;3.15;;;2.30;;
6614;SDS011;3343;42.896;23.912;2023-02-19T09:15:00;5.13;;;1.92;;
6614;SDS011;3343;42.896;23.912;2023-02-19T09:17:27;2.35;;;1.63;;
6614;SDS011;3343;42.896;23.912;2023-02-19T09:19:53;4.63;;;2.25;;
6614;SDS011;3343;42.896;23.912;2023-02-19T09:22:20;3.17;;;1.90;;
6614;SDS011;3343;42.896;23.912;2023-02-19T09:24:49;3.55;;;1.80;;
6614;SDS011;3343;42.896;23.912;2023-02-19T09:27:16;1.50;;;1.40;;
6614;SDS011;3343;42.896;23.912;2023-02-19T09:29:44;2.20;;;1.55;;
6614;SDS011;3343;42.896;23.912;2023-02-19T09:32:11;1.70;;;1.42;;
6614;SDS011;3343;42.896;23.912;2023-02-19T09:34:39;1.92;;;1.45;;
6614;SDS011;3343;42.896;23.912;2023-02-19T09:37:06;2.35;;;1.63;;
6614;SDS011;3343;42.896;23.912;2023-02-19T09:39:33;3.28;;;1.83;;
6614;SDS011;3343;42.896;23.912;2023-02-19T09:42:03;2.25;;;1.80;;
6614;SDS011;3343;42.896;23.912;2023-02-19T09:44:38;3.38;;;2.00;;
6614;SDS011;3343;42.896;23.912;2023-02-19T09:47:08;5.53;;;2.03;;
6614;SDS011;3343;42.896;23.912;2023-02-19T09:49:42;2.70;;;1.83;;
6614;SDS011;3343;42.896;23.912;2023-02-19T09:52:15;3.15;;;2.20;;
6614;SDS011;3343;42.896;23.912;2023-02-19T09:54:45;2.65;;;2.05;;
6614;SDS011;3343;42.896;23.912;2023-02-19T09:57:14;4.13;;;2.70;;
6614;SDS011;3343;42.896;23.912;2023-02-19T09:59:44;5.78;;;2.20;;
6614;SDS011;3343;42.896;23.912;2023-02-19T10:02:14;3.63;;;2.30;;
6614;SDS011;3343;42.896;23.912;2023-02-19T10:04:43;5.25;;;1.92;;
6614;SDS011;3343;42.896;23.912;2023-02-19T10:07:11;4.45;;;2.28;;
6614;SDS011;3343;42.896;23.912;2023-02-19T10:09:39;6.07;;;2.10;;
6614;SDS011;3343;42.896;23.912;2023-02-19T10:12:11;2.92;;;2.30;;
6614;SDS011;3343;42.896;23.912;2023-02-19T10:14:45;2.47;;;1.83;;
6614;SDS011;3343;42.896;23.912;2023-02-19T10:17:18;2.50;;;1.88;;
6614;SDS011;3343;42.896;23.912;2023-02-19T10:19:48;3.05;;;2.10;;
6614;SDS011;3343;42.896;23.912;2023-02-19T10:22:16;2.70;;;1.95;;
6614;SDS011;3343;42.896;23.912;2023-02-19T10:24:43;6.55;;;2.10;;
6614;SDS011;3343;42.896;23.912;2023-02-19T10:27:11;2.88;;;2.20;;
6614;SDS011;3343;42.896;23.912;2023-02-19T10:29:40;4.80;;;2.28;;
6614;SDS011;3343;42.896;23.912;2023-02-19T10:32:16;2.50;;;1.83;;
6614;SDS011;3343;42.896;23.912;2023-02-19T10:34:45;2.80;;;2.00;;
6614;SDS011;3343;42.896;23.912;2023-02-19T10:37:13;7.57;;;2.10;;
6614;SDS011;3343;42.896;23.912;2023-02-19T10:39:43;2.15;;;1.85;;
6614;SDS011;3343;42.896;23.912;2023-02-19T10:42:18;3.47;;;2.35;;
6614;SDS011;3343;42.896;23.912;2023-02-19T10:44:48;3.60;;;2.50;;
6614;SDS011;3343;42.896;23.912;2023-02-19T10:47:20;4.30;;;2.60;;
6614;SDS011;3343;42.896;23.912;2023-02-19T10:49:49;2.75;;;2.10;;
6614;SDS011;3343;42.896;23.912;2023-02-19T10:52:19;3.88;;;2.13;;
6614;SDS011;3343;42.896;23.912;2023-02-19T10:54:50;5.80;;;2.78;;
6614;SDS011;3343;42.896;23.912;2023-02-19T10:57:25;3.13;;;2.20;;
6614;SDS011;3343;42.896;23.912;2023-02-19T11:00:00;2.85;;;2.03;;
6614;SDS011;3343;42.896;23.912;2023-02-19T11:02:44;2.83;;;2.15;;
6614;SDS011;3343;42.896;23.912;2023-02-19T11:05:15;3.63;;;2.28;;
6614;SDS011;3343;42.896;23.912;2023-02-19T11:07:45;4.60;;;2.28;;
6614;SDS011;3343;42.896;23.912;2023-02-19T11:10:20;2.30;;;1.92;;
6614;SDS011;3343;42.896;23.912;2023-02-19T11:12:52;2.88;;;1.83;;
6614;SDS011;3343;42.896;23.912;2023-02-19T11:15:22;2.97;;;2.05;;
6614;SDS011;3343;42.896;23.912;2023-02-19T11:17:56;2.85;;;2.08;;
6614;SDS011;3343;42.896;23.912;2023-02-19T11:20:24;3.83;;;2.40;;
6614;SDS011;3343;42.896;23.912;2023-02-19T11:22:55;2.00;;;1.70;;
6614;SDS011;3343;42.896;23.912;2023-02-19T11:25:25;2.00;;;1.65;;
6614;SDS011;3343;42.896;23.912;2023-02-19T11:27:56;2.45;;;1.92;;
6614;SDS011;3343;42.896;23.912;2023-02-19T11:30:34;2.80;;;1.80;;
6614;SDS011;3343;42.896;23.912;2023-02-19T11:33:17;2.05;;;1.85;;
6614;SDS011;3343;42.896;23.912;2023-02-19T11:35:47;3.10;;;1.98;;
6614;SDS011;3343;42.896;23.912;2023-02-19T11:38:16;4.70;;;2.30;;
6614;SDS011;3343;42.896;23.912;2023-02-19T11:40:49;4.57;;;2.00;;
6614;SDS011;3343;42.896;23.912;2023-02-19T11:43:30;2.08;;;1.60;;
6614;SDS011;3343;42.896;23.912;2023-02-19T11:46:11;2.08;;;1.70;;
6614;SDS011;3343;42.896;23.912;2023-02-19T11:48:47;2.38;;;1.75;;
6614;SDS011;3343;42.896;23.912;2023-02-19T11:54:20;2.53;;;1.77;;
6614;SDS011;3343;42.896;23.912;2023-02-19T11:57:00;2.20;;;1.60;;
6614;SDS011;3343;42.896;23.912;2023-02-19T11:59:36;2.20;;;1.60;;
6614;SDS011;3343;42.896;23.912;2023-02-19T12:02:23;2.50;;;1.60;;
6614;SDS011;3343;42.896;23.912;2023-02-19T12:11:07;1.88;;;1.58;;
6614;SDS011;3343;42.896;23.912;2023-02-19T12:13:48;2.65;;;1.80;;
6614;SDS011;3343;42.896;23.912;2023-02-19T12:16:35;2.90;;;1.90;;
6614;SDS011;3343;42.896;23.912;2023-02-19T12:19:24;3.33;;;2.08;;
6614;SDS011;3343;42.896;23.912;2023-02-19T12:22:08;2.15;;;1.85;;
6614;SDS011;3343;42.896;23.912;2023-02-19T12:27:54;3.33;;;2.30;;
6614;SDS011;3343;42.896;23.912;2023-02-19T12:30:43;2.63;;;1.98;;
6614;SDS011;3343;42.896;23.912;2023-02-19T12:33:31;4.28;;;2.50;;
6614;SDS011;3343;42.896;23.912;2023-02-19T12:36:14;2.30;;;1.98;;
6614;SDS011;3343;42.896;23.912;2023-02-19T12:38:52;4.90;;;1.95;;
6614;SDS011;3343;42.896;23.912;2023-02-19T12:41:29;2.72;;;1.90;;
6614;SDS011;3343;42.896;23.912;2023-02-19T12:44:08;3.10;;;2.03;;
6614;SDS011;3343;42.896;23.912;2023-02-19T12:46:41;2.67;;;2.10;;
6614;SDS011;3343;42.896;23.912;2023-02-19T12:49:14;3.78;;;2.50;;
6614;SDS011;3343;42.896;23.912;2023-02-19T12:51:49;4.15;;;2.67;;
6614;SDS011;3343;42.896;23.912;2023-02-19T12:54:22;2.70;;;2.10;;
6614;SDS011;3343;42.896;23.912;2023-02-19T12:56:54;4.18;;;2.15;;
6614;SDS011;3343;42.896;23.912;2023-02-19T12:59:28;2.65;;;1.98;;
6614;SDS011;3343;42.896;23.912;2023-02-19T13:01:59;2.97;;;2.08;;
6614;SDS011;3343;42.896;23.912;2023-02-19T13:04:32;2.45;;;2.00;;
6614;SDS011;3343;42.896;23.912;2023-02-19T13:07:08;3.65;;;2.67;;
6614;SDS011;3343;42.896;23.912;2023-02-19T13:09:40;2.03;;;1.80;;
6614;SDS011;3343;42.896;23.912;2023-02-19T13:12:13;3.95;;;2.40;;
6614;SDS011;3343;42.896;23.912;2023-02-19T13:14:47;2.78;;;1.85;;
6614;SDS011;3343;42.896;23.912;2023-02-19T13:17:21;2.25;;;1.80;;
6614;SDS011;3343;42.896;23.912;2023-02-19T13:19:54;3.38;;;2.30;;
6614;SDS011;3343;42.896;23.912;2023-02-19T13:22:28;2.38;;;1.88;;
6614;SDS011;3343;42.896;23.912;2023-02-19T13:25:19;2.75;;;1.85;;
6614;SDS011;3343;42.896;23.912;2023-02-19T13:27:59;2.42;;;1.92;;
6614;SDS011;3343;42.896;23.912;2023-02-19T13:30:40;2.95;;;1.92;;
6614;SDS011;3343;42.896;23.912;2023-02-19T13:33:24;3.40;;;1.63;;
6614;SDS011;3343;42.896;23.912;2023-02-19T13:36:00;2.10;;;1.85;;
6614;SDS011;3343;42.896;23.912;2023-02-19T13:38:33;6.28;;;2.08;;
6614;SDS011;3343;42.896;23.912;2023-02-19T13:41:03;3.05;;;1.85;;
6614;SDS011;3343;42.896;23.912;2023-02-19T13:43:31;3.17;;;2.22;;
6614;SDS011;3343;42.896;23.912;2023-02-19T13:46:02;3.10;;;2.08;;
6614;SDS011;3343;42.896;23.912;2023-02-19T13:48:32;3.03;;;2.10;;
6614;SDS011;3343;42.896;23.912;2023-02-19T13:59:52;2.65;;;1.70;;
6614;SDS011;3343;42.896;23.912;2023-02-19T14:02:24;2.40;;;2.17;;
6614;SDS011;3343;42.896;23.912;2023-02-19T14:04:56;3.55;;;2.15;;
6614;SDS011;3343;42.896;23.912;2023-02-19T14:16:30;4.40;;;1.92;;
6614;SDS011;3343;42.896;23.912;2023-02-19T14:25:23;4.43;;;2.80;;
6614;SDS011;3343;42.896;23.912;2023-02-19T14:27:56;3.50;;;2.28;;
6614;SDS011;3343;42.896;23.912;2023-02-19T14:30:29;3.53;;;2.45;;
6614;SDS011;3343;42.896;23.912;2023-02-19T14:32:57;4.90;;;2.80;;
6614;SDS011;3343;42.896;23.912;2023-02-19T14:35:28;2.85;;;2.15;;
6614;SDS011;3343;42.896;23.912;2023-02-19T14:38:00;4.05;;;2.63;;
6614;SDS011;3343;42.896;23.912;2023-02-19T14:40:31;3.67;;;2.40;;
6614;SDS011;3343;42.896;23.912;2023-02-19T14:43:01;4.80;;;2.50;;
6614;SDS011;3343;42.896;23.912;2023-02-19T14:45:33;3.40;;;2.43;;
6614;SDS011;3343;42.896;23.912;2023-02-19T14:48:07;3.88;;;2.17;;
6614;SDS011;3343;42.896;23.912;2023-02-19T14:50:42;4.73;;;2.80;;
6614;SDS011;3343;42.896;23.912;2023-02-19T14:53:13;6.33;;;4.97;;
6614;SDS011;3343;42.896;23.912;2023-02-19T14:55:42;6.20;;;4.37;;
6614;SDS011;3343;42.896;23.912;2023-02-19T14:58:12;8.13;;;5.03;;
6614;SDS011;3343;42.896;23.912;2023-02-19T15:00:44;6.27;;;4.10;;
6614;SDS011;3343;42.896;23.912;2023-02-19T15:03:25;4.73;;;2.60;;
6614;SDS011;3343;42.896;23.912;2023-02-19T15:05:58;10.00;;;5.93;;
6614;SDS011;3343;42.896;23.912;2023-02-19T15:08:30;7.77;;;5.43;;
6614;SDS011;3343;42.896;23.912;2023-02-19T15:11:01;7.67;;;4.87;;
6614;SDS011;3343;42.896;23.912;2023-02-19T15:13:29;6.50;;;4.80;;
6614;SDS011;3343;42.896;23.912;2023-02-19T15:15:58;11.37;;;7.00;;
6614;SDS011;3343;42.896;23.912;2023-02-19T15:18:25;25.33;;;17.10;;
6614;SDS011;3343;42.896;23.912;2023-02-19T15:20:57;19.17;;;10.63;;
6614;SDS011;3343;42.896;23.912;2023-02-19T15:23:26;24.03;;;13.43;;
6614;SDS011;3343;42.896;23.912;2023-02-19T15:25:56;4.33;;;3.53;;
6614;SDS011;3343;42.896;23.912;2023-02-19T15:28:28;6.07;;;3.57;;
6614;SDS011;3343;42.896;23.912;2023-02-19T15:31:09;10.57;;;6.37;;
6614;SDS011;3343;42.896;23.912;2023-02-19T15:33:47;8.60;;;5.20;;
6614;SDS011;3343;42.896;23.912;2023-02-19T15:36:16;11.27;;;5.20;;
6614;SDS011;3343;42.896;23.912;2023-02-19T15:38:56;6.30;;;2.70;;
6614;SDS011;3343;42.896;23.912;2023-02-19T15:41:25;2.83;;;2.50;;
6614;SDS011;3343;42.896;23.912;2023-02-19T15:43:57;4.33;;;2.83;;
6614;SDS011;3343;42.896;23.912;2023-02-19T15:46:37;6.23;;;3.30;;
6614;SDS011;3343;42.896;23.912;2023-02-19T15:49:07;4.37;;;3.00;;
6614;SDS011;3343;42.896;23.912;2023-02-19T15:51:38;3.90;;;3.00;;
6614;SDS011;3343;42.896;23.912;2023-02-19T15:54:12;4.03;;;2.87;;
6614;SDS011;3343;42.896;23.912;2023-02-19T15:56:43;4.50;;;2.80;;
6614;SDS011;3343;42.896;23.912;2023-02-19T15:59:16;8.13;;;4.90;;